Kent, Illinois
Current Conditions -  °F | °C
As of 10:55 PM on Saturday 25 Oct 2014 (Local Time) from KFEP Reporting Station
Clear Clear  
Wind Chill:   Ceiling: Unl
Heat Index:   Visibility: 10mi
Dew Point: -1°   Wind: 6mph
Humidity: 53%   Direction: 270°W
Pressure: 30.03"   Gusts: NA
Location:  42.31°N, 89.9°W
Report Text: KFEP 260355Z AUTO 27005KT 10SM CLR 08/M01 A3003 RMK AO2 T00821008
Loading
Personal Weather Stations






























Interactive Weather Map
Tropical Storm Tracking
New forecast layout! Learn more

10-Day Weather Forecast

Advertisements
Track Severe Weather on mobile